KBCK

Black River Falls Area Airport

Black River Falls, Wisconsin, USA
METAR KBCK 210415Z AUTO 00000KT 7SM CLR M02/M02 A2993 RMK AO2 T10251025
Observed Flight Rules
Jan-21 @ 04:15 UTC (34 minutes ago) Visual Flight Rules
Wind Visibility Clouds
Calm 7 miles
  • Clear skies
Temperatures Readings
Current -3°C / 27°F
Dewpoint -3°C / 27°F
Humidity 100%
Altimeter 29.93" Hg
Pressure 1014 hPa
Elevation 255
METAR KBCK 210415Z AUTO 00000KT 7SM CLR M02/M02 A2993 RMK AO2 T10251025
Observed Flight Rules
Jan-21 @ 04:15 UTC
(34 minutes ago)
VFR
Wind Visibility
Calm 7 miles
Clouds
  • Clear skies
Temperature Dewpoint
-3°C / 27°F -3°C / 27°F
Humidity Altimeter Pressure
100% 29.93" Hg 1014 hPa